sensor_id;sensor_type;location;lat;lon;timestamp;temperature;humidity
6940;DHT22;3509;48.510;9.076;2022-07-23T00:00:20;18.80;99.90
6940;DHT22;3509;48.510;9.076;2022-07-23T00:02:45;18.80;99.90
6940;DHT22;3509;48.510;9.076;2022-07-23T00:05:11;18.70;99.90
6940;DHT22;3509;48.510;9.076;2022-07-23T00:07:37;18.70;99.90
6940;DHT22;3509;48.510;9.076;2022-07-23T00:10:04;18.70;99.90
6940;DHT22;3509;48.510;9.076;2022-07-23T00:12:30;18.70;99.90
6940;DHT22;3509;48.510;9.076;2022-07-23T00:14:55;18.70;99.90
6940;DHT22;3509;48.510;9.076;2022-07-23T00:17:21;18.70;99.90
6940;DHT22;3509;48.510;9.076;2022-07-23T00:19:47;18.70;99.90
6940;DHT22;3509;48.510;9.076;2022-07-23T00:22:12;18.70;99.90
6940;DHT22;3509;48.510;9.076;2022-07-23T00:24:38;18.60;99.90
6940;DHT22;3509;48.510;9.076;2022-07-23T00:27:04;18.60;99.90
6940;DHT22;3509;48.510;9.076;2022-07-23T00:29:29;18.50;99.90
6940;DHT22;3509;48.510;9.076;2022-07-23T00:31:55;18.50;99.90
6940;DHT22;3509;48.510;9.076;2022-07-23T00:34:21;18.50;99.90
6940;DHT22;3509;48.510;9.076;2022-07-23T00:36:46;18.50;99.90
6940;DHT22;3509;48.510;9.076;2022-07-23T00:39:12;18.60;99.90
6940;DHT22;3509;48.510;9.076;2022-07-23T00:41:38;18.60;99.90
6940;DHT22;3509;48.510;9.076;2022-07-23T00:44:24;18.60;99.90
6940;DHT22;3509;48.510;9.076;2022-07-23T00:46:55;18.60;99.90
6940;DHT22;3509;48.510;9.076;2022-07-23T00:49:22;18.50;99.90
6940;DHT22;3509;48.510;9.076;2022-07-23T00:51:50;18.50;99.90
6940;DHT22;3509;48.510;9.076;2022-07-23T00:54:17;18.50;99.90
6940;DHT22;3509;48.510;9.076;2022-07-23T00:56:44;18.50;99.90
6940;DHT22;3509;48.510;9.076;2022-07-23T00:59:10;18.50;99.90
6940;DHT22;3509;48.510;9.076;2022-07-23T01:01:36;18.50;99.90
6940;DHT22;3509;48.510;9.076;2022-07-23T01:04:02;18.50;99.90
6940;DHT22;3509;48.510;9.076;2022-07-23T01:06:28;18.50;99.90
6940;DHT22;3509;48.510;9.076;2022-07-23T01:08:55;18.40;99.90
6940;DHT22;3509;48.510;9.076;2022-07-23T01:11:22;18.40;99.90
6940;DHT22;3509;48.510;9.076;2022-07-23T01:13:49;18.30;99.90
6940;DHT22;3509;48.510;9.076;2022-07-23T01:16:14;18.40;99.90
6940;DHT22;3509;48.510;9.076;2022-07-23T01:18:40;18.40;99.90
6940;DHT22;3509;48.510;9.076;2022-07-23T01:21:05;18.40;99.90
6940;DHT22;3509;48.510;9.076;2022-07-23T01:23:31;18.40;99.90
6940;DHT22;3509;48.510;9.076;2022-07-23T01:25:57;18.40;99.90
6940;DHT22;3509;48.510;9.076;2022-07-23T01:28:23;18.30;99.90
6940;DHT22;3509;48.510;9.076;2022-07-23T01:30:49;18.30;99.90
6940;DHT22;3509;48.510;9.076;2022-07-23T01:33:15;18.20;99.90
6940;DHT22;3509;48.510;9.076;2022-07-23T01:35:41;18.20;99.90
6940;DHT22;3509;48.510;9.076;2022-07-23T01:38:06;18.20;99.90
6940;DHT22;3509;48.510;9.076;2022-07-23T01:40:32;18.10;99.90
6940;DHT22;3509;48.510;9.076;2022-07-23T01:42:57;18.10;99.90
6940;DHT22;3509;48.510;9.076;2022-07-23T01:45:23;18.00;99.90
6940;DHT22;3509;48.510;9.076;2022-07-23T01:47:49;18.10;99.90
6940;DHT22;3509;48.510;9.076;2022-07-23T01:50:15;18.10;99.90
6940;DHT22;3509;48.510;9.076;2022-07-23T01:52:41;18.10;99.90
6940;DHT22;3509;48.510;9.076;2022-07-23T01:55:08;18.00;99.90
6940;DHT22;3509;48.510;9.076;2022-07-23T01:57:34;18.00;99.90
6940;DHT22;3509;48.510;9.076;2022-07-23T01:59:59;18.00;99.90
6940;DHT22;3509;48.510;9.076;2022-07-23T02:02:25;17.90;99.90
6940;DHT22;3509;48.510;9.076;2022-07-23T02:04:51;17.90;99.90
6940;DHT22;3509;48.510;9.076;2022-07-23T02:07:17;17.90;99.90
6940;DHT22;3509;48.510;9.076;2022-07-23T02:09:42;18.00;99.90
6940;DHT22;3509;48.510;9.076;2022-07-23T02:12:08;17.90;99.90
6940;DHT22;3509;48.510;9.076;2022-07-23T02:14:34;17.90;99.90
6940;DHT22;3509;48.510;9.076;2022-07-23T02:16:59;17.90;99.90
6940;DHT22;3509;48.510;9.076;2022-07-23T02:19:25;17.90;99.90
6940;DHT22;3509;48.510;9.076;2022-07-23T02:21:51;17.80;99.90
6940;DHT22;3509;48.510;9.076;2022-07-23T02:24:16;17.80;99.90
6940;DHT22;3509;48.510;9.076;2022-07-23T02:26:43;17.80;99.90
6940;DHT22;3509;48.510;9.076;2022-07-23T02:29:09;17.80;99.90
6940;DHT22;3509;48.510;9.076;2022-07-23T02:31:34;17.80;99.90
6940;DHT22;3509;48.510;9.076;2022-07-23T02:34:01;17.70;99.90
6940;DHT22;3509;48.510;9.076;2022-07-23T02:36:27;17.70;99.90
6940;DHT22;3509;48.510;9.076;2022-07-23T02:38:53;17.70;99.90
6940;DHT22;3509;48.510;9.076;2022-07-23T02:41:19;17.70;99.90
6940;DHT22;3509;48.510;9.076;2022-07-23T02:43:44;17.60;99.90
6940;DHT22;3509;48.510;9.076;2022-07-23T02:46:10;17.60;99.90
6940;DHT22;3509;48.510;9.076;2022-07-23T02:48:36;17.60;99.90
6940;DHT22;3509;48.510;9.076;2022-07-23T02:51:01;17.60;99.90
6940;DHT22;3509;48.510;9.076;2022-07-23T02:53:27;17.60;99.90
6940;DHT22;3509;48.510;9.076;2022-07-23T02:55:53;17.50;99.90
6940;DHT22;3509;48.510;9.076;2022-07-23T02:58:18;17.50;99.90
6940;DHT22;3509;48.510;9.076;2022-07-23T03:00:44;17.50;99.90
6940;DHT22;3509;48.510;9.076;2022-07-23T03:03:10;17.50;99.90
6940;DHT22;3509;48.510;9.076;2022-07-23T03:05:35;17.50;99.90
6940;DHT22;3509;48.510;9.076;2022-07-23T03:08:01;17.50;99.90
6940;DHT22;3509;48.510;9.076;2022-07-23T03:10:27;17.50;99.90
6940;DHT22;3509;48.510;9.076;2022-07-23T03:12:52;17.50;99.90
6940;DHT22;3509;48.510;9.076;2022-07-23T03:15:18;17.50;99.90
6940;DHT22;3509;48.510;9.076;2022-07-23T03:17:43;17.50;99.90
6940;DHT22;3509;48.510;9.076;2022-07-23T03:20:09;17.40;99.90
6940;DHT22;3509;48.510;9.076;2022-07-23T03:22:35;17.40;99.90
6940;DHT22;3509;48.510;9.076;2022-07-23T03:25:01;17.40;99.90
6940;DHT22;3509;48.510;9.076;2022-07-23T03:27:30;17.30;99.90
6940;DHT22;3509;48.510;9.076;2022-07-23T03:29:57;17.30;99.90
6940;DHT22;3509;48.510;9.076;2022-07-23T03:32:24;17.20;99.90
6940;DHT22;3509;48.510;9.076;2022-07-23T03:34:50;17.20;99.90
6940;DHT22;3509;48.510;9.076;2022-07-23T03:37:16;17.10;99.90
6940;DHT22;3509;48.510;9.076;2022-07-23T03:39:42;17.00;99.90
6940;DHT22;3509;48.510;9.076;2022-07-23T03:42:08;17.00;99.90
6940;DHT22;3509;48.510;9.076;2022-07-23T03:44:34;16.90;99.90
6940;DHT22;3509;48.510;9.076;2022-07-23T03:46:59;16.80;99.90
6940;DHT22;3509;48.510;9.076;2022-07-23T03:49:25;16.80;99.90
6940;DHT22;3509;48.510;9.076;2022-07-23T03:51:51;16.80;99.90
6940;DHT22;3509;48.510;9.076;2022-07-23T03:54:16;16.70;99.90
6940;DHT22;3509;48.510;9.076;2022-07-23T03:56:42;16.70;99.90
6940;DHT22;3509;48.510;9.076;2022-07-23T03:59:08;16.70;99.90
6940;DHT22;3509;48.510;9.076;2022-07-23T04:01:34;16.70;99.90
6940;DHT22;3509;48.510;9.076;2022-07-23T04:04:00;16.70;99.90
6940;DHT22;3509;48.510;9.076;2022-07-23T04:06:26;16.70;99.90
6940;DHT22;3509;48.510;9.076;2022-07-23T04:08:52;16.70;99.90
6940;DHT22;3509;48.510;9.076;2022-07-23T04:11:17;16.80;99.90
6940;DHT22;3509;48.510;9.076;2022-07-23T04:13:43;16.80;99.90
6940;DHT22;3509;48.510;9.076;2022-07-23T04:16:09;16.80;99.90
6940;DHT22;3509;48.510;9.076;2022-07-23T04:18:34;16.80;99.90
6940;DHT22;3509;48.510;9.076;2022-07-23T04:21:00;16.80;99.90
6940;DHT22;3509;48.510;9.076;2022-07-23T04:23:25;16.70;99.90
6940;DHT22;3509;48.510;9.076;2022-07-23T04:25:51;16.70;99.90
6940;DHT22;3509;48.510;9.076;2022-07-23T04:28:17;16.70;99.90
6940;DHT22;3509;48.510;9.076;2022-07-23T04:30:42;16.70;99.90
6940;DHT22;3509;48.510;9.076;2022-07-23T04:33:08;16.70;99.90
6940;DHT22;3509;48.510;9.076;2022-07-23T04:35:34;16.70;99.90
6940;DHT22;3509;48.510;9.076;2022-07-23T04:38:00;16.80;99.90
6940;DHT22;3509;48.510;9.076;2022-07-23T04:40:26;16.90;99.90
6940;DHT22;3509;48.510;9.076;2022-07-23T04:42:52;17.00;99.90
6940;DHT22;3509;48.510;9.076;2022-07-23T04:45:17;17.10;99.90
6940;DHT22;3509;48.510;9.076;2022-07-23T04:47:43;17.20;99.90
6940;DHT22;3509;48.510;9.076;2022-07-23T04:50:09;17.40;99.90
6940;DHT22;3509;48.510;9.076;2022-07-23T04:52:34;17.50;99.90
6940;DHT22;3509;48.510;9.076;2022-07-23T04:55:00;17.70;99.90
6940;DHT22;3509;48.510;9.076;2022-07-23T04:57:26;17.80;99.90
6940;DHT22;3509;48.510;9.076;2022-07-23T04:59:51;17.80;99.90
6940;DHT22;3509;48.510;9.076;2022-07-23T05:02:17;17.90;99.90
6940;DHT22;3509;48.510;9.076;2022-07-23T05:04:43;17.90;99.90
6940;DHT22;3509;48.510;9.076;2022-07-23T05:07:08;17.90;99.90
6940;DHT22;3509;48.510;9.076;2022-07-23T05:09:34;17.90;99.90
6940;DHT22;3509;48.510;9.076;2022-07-23T05:12:00;17.90;99.90
6940;DHT22;3509;48.510;9.076;2022-07-23T05:14:25;18.00;99.90
6940;DHT22;3509;48.510;9.076;2022-07-23T05:16:51;18.10;99.90
6940;DHT22;3509;48.510;9.076;2022-07-23T05:19:17;18.20;99.90
6940;DHT22;3509;48.510;9.076;2022-07-23T05:21:43;18.30;99.90
6940;DHT22;3509;48.510;9.076;2022-07-23T05:24:08;18.30;99.90
6940;DHT22;3509;48.510;9.076;2022-07-23T05:26:34;18.40;99.90
6940;DHT22;3509;48.510;9.076;2022-07-23T05:29:00;18.40;99.90
6940;DHT22;3509;48.510;9.076;2022-07-23T05:31:25;18.40;99.90
6940;DHT22;3509;48.510;9.076;2022-07-23T05:33:51;18.40;99.90
6940;DHT22;3509;48.510;9.076;2022-07-23T05:36:17;18.40;99.90
6940;DHT22;3509;48.510;9.076;2022-07-23T05:38:42;18.40;99.90
6940;DHT22;3509;48.510;9.076;2022-07-23T05:41:08;18.50;99.90
6940;DHT22;3509;48.510;9.076;2022-07-23T05:43:34;18.70;99.90
6940;DHT22;3509;48.510;9.076;2022-07-23T05:45:59;19.70;99.90
6940;DHT22;3509;48.510;9.076;2022-07-23T05:48:25;21.00;99.90
6940;DHT22;3509;48.510;9.076;2022-07-23T05:50:51;22.30;99.90
6940;DHT22;3509;48.510;9.076;2022-07-23T05:53:17;23.40;99.90
6940;DHT22;3509;48.510;9.076;2022-07-23T05:55:42;24.40;99.90
6940;DHT22;3509;48.510;9.076;2022-07-23T05:58:08;25.30;99.90
6940;DHT22;3509;48.510;9.076;2022-07-23T06:00:34;26.00;99.90
6940;DHT22;3509;48.510;9.076;2022-07-23T06:03:00;26.70;99.90
6940;DHT22;3509;48.510;9.076;2022-07-23T06:05:26;27.50;98.70
6940;DHT22;3509;48.510;9.076;2022-07-23T06:07:52;27.80;97.70
6940;DHT22;3509;48.510;9.076;2022-07-23T06:10:18;28.00;96.70
6940;DHT22;3509;48.510;9.076;2022-07-23T06:12:45;28.30;95.60
6940;DHT22;3509;48.510;9.076;2022-07-23T06:15:11;28.10;95.50
6940;DHT22;3509;48.510;9.076;2022-07-23T06:17:38;28.20;96.10
6940;DHT22;3509;48.510;9.076;2022-07-23T06:20:07;28.40;95.80
6940;DHT22;3509;48.510;9.076;2022-07-23T06:22:34;29.30;93.80
6940;DHT22;3509;48.510;9.076;2022-07-23T06:25:00;29.70;91.90
6940;DHT22;3509;48.510;9.076;2022-07-23T06:27:25;29.50;91.20
6940;DHT22;3509;48.510;9.076;2022-07-23T06:29:51;29.60;90.10
6940;DHT22;3509;48.510;9.076;2022-07-23T06:32:17;29.60;88.80
6940;DHT22;3509;48.510;9.076;2022-07-23T06:34:42;29.80;87.50
6940;DHT22;3509;48.510;9.076;2022-07-23T06:37:08;29.70;89.70
6940;DHT22;3509;48.510;9.076;2022-07-23T06:39:33;30.20;83.40
6940;DHT22;3509;48.510;9.076;2022-07-23T06:41:59;30.70;83.30
6940;DHT22;3509;48.510;9.076;2022-07-23T06:44:26;30.90;80.90
6940;DHT22;3509;48.510;9.076;2022-07-23T06:46:52;30.90;82.30
6940;DHT22;3509;48.510;9.076;2022-07-23T06:49:18;30.60;80.60
6940;DHT22;3509;48.510;9.076;2022-07-23T06:51:43;30.60;80.60
6940;DHT22;3509;48.510;9.076;2022-07-23T06:54:09;31.30;78.70
6940;DHT22;3509;48.510;9.076;2022-07-23T06:56:35;31.60;76.90
6940;DHT22;3509;48.510;9.076;2022-07-23T06:59:01;31.70;75.20
6940;DHT22;3509;48.510;9.076;2022-07-23T07:01:26;31.40;74.20
6940;DHT22;3509;48.510;9.076;2022-07-23T07:03:52;31.90;72.00
6940;DHT22;3509;48.510;9.076;2022-07-23T07:06:18;32.10;72.40
6940;DHT22;3509;48.510;9.076;2022-07-23T07:08:43;31.80;70.90
6940;DHT22;3509;48.510;9.076;2022-07-23T07:11:10;32.10;71.40
6940;DHT22;3509;48.510;9.076;2022-07-23T07:13:36;32.30;71.10
6940;DHT22;3509;48.510;9.076;2022-07-23T07:16:02;32.60;66.10
6940;DHT22;3509;48.510;9.076;2022-07-23T07:18:28;32.30;63.70
6940;DHT22;3509;48.510;9.076;2022-07-23T07:20:54;31.80;63.40
6940;DHT22;3509;48.510;9.076;2022-07-23T07:23:20;31.70;63.00
6940;DHT22;3509;48.510;9.076;2022-07-23T07:25:46;31.40;66.70
6940;DHT22;3509;48.510;9.076;2022-07-23T07:28:12;30.70;69.40
6940;DHT22;3509;48.510;9.076;2022-07-23T07:30:38;30.50;70.20
6940;DHT22;3509;48.510;9.076;2022-07-23T07:33:03;30.60;66.10
6940;DHT22;3509;48.510;9.076;2022-07-23T07:35:29;31.10;64.20
6940;DHT22;3509;48.510;9.076;2022-07-23T07:37:56;31.10;65.40
6940;DHT22;3509;48.510;9.076;2022-07-23T07:40:22;31.60;66.00
6940;DHT22;3509;48.510;9.076;2022-07-23T07:42:49;32.50;62.90
6940;DHT22;3509;48.510;9.076;2022-07-23T07:45:15;33.30;58.10
6940;DHT22;3509;48.510;9.076;2022-07-23T07:47:41;33.50;56.20
6940;DHT22;3509;48.510;9.076;2022-07-23T07:50:07;32.60;58.50
6940;DHT22;3509;48.510;9.076;2022-07-23T07:52:34;32.10;60.20
6940;DHT22;3509;48.510;9.076;2022-07-23T07:55:03;31.30;63.70
6940;DHT22;3509;48.510;9.076;2022-07-23T07:57:29;30.50;65.80
6940;DHT22;3509;48.510;9.076;2022-07-23T07:59:54;29.90;66.80
6940;DHT22;3509;48.510;9.076;2022-07-23T08:02:20;29.50;66.60
6940;DHT22;3509;48.510;9.076;2022-07-23T08:04:45;29.40;68.40
6940;DHT22;3509;48.510;9.076;2022-07-23T08:07:11;29.20;68.40
6940;DHT22;3509;48.510;9.076;2022-07-23T08:09:37;29.20;70.40
6940;DHT22;3509;48.510;9.076;2022-07-23T08:12:02;29.00;67.30
6940;DHT22;3509;48.510;9.076;2022-07-23T08:14:28;28.90;66.20
6940;DHT22;3509;48.510;9.076;2022-07-23T08:16:54;28.50;69.90
6940;DHT22;3509;48.510;9.076;2022-07-23T08:19:19;28.50;70.30
6940;DHT22;3509;48.510;9.076;2022-07-23T08:21:45;28.80;69.60
6940;DHT22;3509;48.510;9.076;2022-07-23T08:24:11;28.90;69.40
6940;DHT22;3509;48.510;9.076;2022-07-23T08:26:36;29.10;69.50
6940;DHT22;3509;48.510;9.076;2022-07-23T08:29:02;30.20;67.60
6940;DHT22;3509;48.510;9.076;2022-07-23T08:31:27;31.40;64.10
6940;DHT22;3509;48.510;9.076;2022-07-23T08:33:53;32.50;60.70
6940;DHT22;3509;48.510;9.076;2022-07-23T08:36:20;33.30;56.60
6940;DHT22;3509;48.510;9.076;2022-07-23T08:38:46;33.40;55.20
6940;DHT22;3509;48.510;9.076;2022-07-23T08:41:11;33.40;54.90
6940;DHT22;3509;48.510;9.076;2022-07-23T08:43:37;33.10;55.70
6940;DHT22;3509;48.510;9.076;2022-07-23T08:46:04;32.80;57.20
6940;DHT22;3509;48.510;9.076;2022-07-23T08:48:35;31.80;58.40
6940;DHT22;3509;48.510;9.076;2022-07-23T08:51:05;31.10;62.10
6940;DHT22;3509;48.510;9.076;2022-07-23T08:53:32;30.70;62.00
6940;DHT22;3509;48.510;9.076;2022-07-23T08:56:01;30.80;62.40
6940;DHT22;3509;48.510;9.076;2022-07-23T08:58:27;31.20;57.90
6940;DHT22;3509;48.510;9.076;2022-07-23T09:00:53;31.30;58.40
6940;DHT22;3509;48.510;9.076;2022-07-23T09:03:25;31.10;58.70
6940;DHT22;3509;48.510;9.076;2022-07-23T09:05:51;31.20;56.60
6940;DHT22;3509;48.510;9.076;2022-07-23T09:08:21;31.20;57.40
6940;DHT22;3509;48.510;9.076;2022-07-23T09:13:49;32.40;54.00
6940;DHT22;3509;48.510;9.076;2022-07-23T09:21:37;34.00;52.50
6940;DHT22;3509;48.510;9.076;2022-07-23T09:24:08;33.60;53.70
6940;DHT22;3509;48.510;9.076;2022-07-23T09:29:12;32.50;55.90
6940;DHT22;3509;48.510;9.076;2022-07-23T09:34:17;32.20;56.10
6940;DHT22;3509;48.510;9.076;2022-07-23T09:36:43;32.30;56.40
6940;DHT22;3509;48.510;9.076;2022-07-23T09:39:10;32.80;54.90
6940;DHT22;3509;48.510;9.076;2022-07-23T09:41:39;33.20;52.60
6940;DHT22;3509;48.510;9.076;2022-07-23T09:44:14;32.60;53.90
6940;DHT22;3509;48.510;9.076;2022-07-23T09:46:41;32.70;55.80
6940;DHT22;3509;48.510;9.076;2022-07-23T09:49:14;33.00;53.10
6940;DHT22;3509;48.510;9.076;2022-07-23T09:51:51;33.20;52.80
6940;DHT22;3509;48.510;9.076;2022-07-23T09:54:37;33.60;52.50
6940;DHT22;3509;48.510;9.076;2022-07-23T09:57:09;33.60;53.90
6940;DHT22;3509;48.510;9.076;2022-07-23T09:59:39;33.60;54.50
6940;DHT22;3509;48.510;9.076;2022-07-23T10:02:07;33.50;53.60
6940;DHT22;3509;48.510;9.076;2022-07-23T10:04:33;33.90;54.50
6940;DHT22;3509;48.510;9.076;2022-07-23T10:07:02;33.30;53.10
6940;DHT22;3509;48.510;9.076;2022-07-23T10:09:34;33.60;54.90
6940;DHT22;3509;48.510;9.076;2022-07-23T10:12:02;34.10;53.40
6940;DHT22;3509;48.510;9.076;2022-07-23T10:14:35;34.50;52.50
6940;DHT22;3509;48.510;9.076;2022-07-23T10:17:04;34.70;52.30
6940;DHT22;3509;48.510;9.076;2022-07-23T10:19:31;34.40;51.20
6940;DHT22;3509;48.510;9.076;2022-07-23T10:22:03;34.00;51.10
6940;DHT22;3509;48.510;9.076;2022-07-23T10:25:27;33.60;52.00
6940;DHT22;3509;48.510;9.076;2022-07-23T10:33:38;31.40;59.10
6940;DHT22;3509;48.510;9.076;2022-07-23T10:36:08;31.00;57.90
6940;DHT22;3509;48.510;9.076;2022-07-23T10:38:48;31.00;58.70
6940;DHT22;3509;48.510;9.076;2022-07-23T10:41:34;31.00;58.30
6940;DHT22;3509;48.510;9.076;2022-07-23T10:44:17;31.10;58.80
6940;DHT22;3509;48.510;9.076;2022-07-23T10:47:01;31.60;59.10
6940;DHT22;3509;48.510;9.076;2022-07-23T10:49:39;31.70;57.70
6940;DHT22;3509;48.510;9.076;2022-07-23T10:52:28;32.10;57.70
6940;DHT22;3509;48.510;9.076;2022-07-23T10:57:50;33.20;54.90
6940;DHT22;3509;48.510;9.076;2022-07-23T11:00:24;33.70;54.20
6940;DHT22;3509;48.510;9.076;2022-07-23T11:02:52;34.60;50.80
6940;DHT22;3509;48.510;9.076;2022-07-23T11:05:20;35.20;49.90
6940;DHT22;3509;48.510;9.076;2022-07-23T11:10:45;33.50;52.30
6940;DHT22;3509;48.510;9.076;2022-07-23T11:13:40;32.90;54.80
6940;DHT22;3509;48.510;9.076;2022-07-23T11:16:22;32.60;52.80
6940;DHT22;3509;48.510;9.076;2022-07-23T11:23:58;31.90;55.00
6940;DHT22;3509;48.510;9.076;2022-07-23T11:32:20;33.20;54.40
6940;DHT22;3509;48.510;9.076;2022-07-23T11:34:49;34.10;52.80
6940;DHT22;3509;48.510;9.076;2022-07-23T11:40:01;34.60;49.90
6940;DHT22;3509;48.510;9.076;2022-07-23T11:42:27;34.40;51.00
6940;DHT22;3509;48.510;9.076;2022-07-23T11:44:52;33.90;52.20
6940;DHT22;3509;48.510;9.076;2022-07-23T11:47:26;33.40;51.10
6940;DHT22;3509;48.510;9.076;2022-07-23T11:49:56;33.10;52.80
6940;DHT22;3509;48.510;9.076;2022-07-23T11:52:23;33.00;52.00
6940;DHT22;3509;48.510;9.076;2022-07-23T11:57:31;32.90;52.20
6940;DHT22;3509;48.510;9.076;2022-07-23T12:00:17;32.70;53.00
6940;DHT22;3509;48.510;9.076;2022-07-23T12:02:46;32.70;53.40
6940;DHT22;3509;48.510;9.076;2022-07-23T12:05:21;32.40;53.40
6940;DHT22;3509;48.510;9.076;2022-07-23T12:07:48;32.20;54.10
6940;DHT22;3509;48.510;9.076;2022-07-23T12:12:54;32.30;53.10
6940;DHT22;3509;48.510;9.076;2022-07-23T12:15:26;32.60;52.10
6940;DHT22;3509;48.510;9.076;2022-07-23T12:17:53;32.30;52.00
6940;DHT22;3509;48.510;9.076;2022-07-23T12:20:24;32.10;52.90
6940;DHT22;3509;48.510;9.076;2022-07-23T12:22:53;31.90;53.10
6940;DHT22;3509;48.510;9.076;2022-07-23T12:25:23;31.80;53.60
6940;DHT22;3509;48.510;9.076;2022-07-23T12:30:28;31.90;52.40
6940;DHT22;3509;48.510;9.076;2022-07-23T12:32:55;31.50;53.70
6940;DHT22;3509;48.510;9.076;2022-07-23T12:35:22;31.50;53.20
6940;DHT22;3509;48.510;9.076;2022-07-23T12:37:50;31.30;52.80
6940;DHT22;3509;48.510;9.076;2022-07-23T12:45:45;30.90;55.60
6940;DHT22;3509;48.510;9.076;2022-07-23T12:48:24;30.70;55.50
6940;DHT22;3509;48.510;9.076;2022-07-23T12:50:55;30.50;55.80
6940;DHT22;3509;48.510;9.076;2022-07-23T12:53:42;30.50;54.50
6940;DHT22;3509;48.510;9.076;2022-07-23T12:56:11;30.40;55.80
6940;DHT22;3509;48.510;9.076;2022-07-23T13:01:09;30.40;55.30
6940;DHT22;3509;48.510;9.076;2022-07-23T13:03:41;30.60;54.70
6940;DHT22;3509;48.510;9.076;2022-07-23T13:06:10;30.50;54.80
6940;DHT22;3509;48.510;9.076;2022-07-23T13:08:38;30.60;54.80
6940;DHT22;3509;48.510;9.076;2022-07-23T13:11:05;30.70;53.60
6940;DHT22;3509;48.510;9.076;2022-07-23T13:13:33;30.60;54.40
6940;DHT22;3509;48.510;9.076;2022-07-23T13:16:00;30.60;54.40
6940;DHT22;3509;48.510;9.076;2022-07-23T13:18:27;30.80;53.80
6940;DHT22;3509;48.510;9.076;2022-07-23T13:20:53;30.80;53.40
6940;DHT22;3509;48.510;9.076;2022-07-23T13:23:19;30.90;52.90
6940;DHT22;3509;48.510;9.076;2022-07-23T13:25:45;31.20;54.20
6940;DHT22;3509;48.510;9.076;2022-07-23T13:28:11;31.20;53.60
6940;DHT22;3509;48.510;9.076;2022-07-23T13:30:38;31.40;52.20
6940;DHT22;3509;48.510;9.076;2022-07-23T13:33:04;31.40;52.40
6940;DHT22;3509;48.510;9.076;2022-07-23T13:35:30;31.50;52.40
6940;DHT22;3509;48.510;9.076;2022-07-23T13:37:56;31.70;51.60
6940;DHT22;3509;48.510;9.076;2022-07-23T13:40:22;31.60;50.40
6940;DHT22;3509;48.510;9.076;2022-07-23T13:42:48;31.50;51.20
6940;DHT22;3509;48.510;9.076;2022-07-23T13:45:14;31.10;52.20
6940;DHT22;3509;48.510;9.076;2022-07-23T13:47:39;30.90;53.20
6940;DHT22;3509;48.510;9.076;2022-07-23T13:50:05;30.60;53.10
6940;DHT22;3509;48.510;9.076;2022-07-23T13:52:31;30.20;53.50
6940;DHT22;3509;48.510;9.076;2022-07-23T13:55:01;30.00;54.10
6940;DHT22;3509;48.510;9.076;2022-07-23T13:57:27;29.80;55.90
6940;DHT22;3509;48.510;9.076;2022-07-23T13:59:52;29.40;57.50
6940;DHT22;3509;48.510;9.076;2022-07-23T14:02:18;29.40;58.80
6940;DHT22;3509;48.510;9.076;2022-07-23T14:04:44;29.40;58.30
6940;DHT22;3509;48.510;9.076;2022-07-23T14:07:10;29.10;58.70
6940;DHT22;3509;48.510;9.076;2022-07-23T14:09:36;29.10;59.20
6940;DHT22;3509;48.510;9.076;2022-07-23T14:12:03;29.00;59.50
6940;DHT22;3509;48.510;9.076;2022-07-23T14:14:29;28.90;59.90
6940;DHT22;3509;48.510;9.076;2022-07-23T14:16:55;28.90;58.90
6940;DHT22;3509;48.510;9.076;2022-07-23T14:19:21;28.70;59.60
6940;DHT22;3509;48.510;9.076;2022-07-23T14:21:50;28.70;60.50
6940;DHT22;3509;48.510;9.076;2022-07-23T14:24:16;28.60;60.70
6940;DHT22;3509;48.510;9.076;2022-07-23T14:26:42;28.50;61.50
6940;DHT22;3509;48.510;9.076;2022-07-23T14:29:08;28.40;60.50
6940;DHT22;3509;48.510;9.076;2022-07-23T14:31:34;28.50;61.00
6940;DHT22;3509;48.510;9.076;2022-07-23T14:33:59;28.50;61.80
6940;DHT22;3509;48.510;9.076;2022-07-23T14:36:25;28.40;63.40
6940;DHT22;3509;48.510;9.076;2022-07-23T14:38:51;28.40;62.70
6940;DHT22;3509;48.510;9.076;2022-07-23T14:41:17;28.50;60.70
6940;DHT22;3509;48.510;9.076;2022-07-23T14:43:43;28.70;61.50
6940;DHT22;3509;48.510;9.076;2022-07-23T14:46:09;29.30;61.10
6940;DHT22;3509;48.510;9.076;2022-07-23T14:48:36;29.60;58.90
6940;DHT22;3509;48.510;9.076;2022-07-23T14:51:02;29.90;57.30
6940;DHT22;3509;48.510;9.076;2022-07-23T14:53:29;30.10;57.30
6940;DHT22;3509;48.510;9.076;2022-07-23T14:55:54;30.30;56.40
6940;DHT22;3509;48.510;9.076;2022-07-23T14:58:25;30.00;56.70
6940;DHT22;3509;48.510;9.076;2022-07-23T15:00:51;30.00;56.10
6940;DHT22;3509;48.510;9.076;2022-07-23T15:03:17;29.90;57.20
6940;DHT22;3509;48.510;9.076;2022-07-23T15:05:43;29.80;56.40
6940;DHT22;3509;48.510;9.076;2022-07-23T15:08:09;29.50;55.80
6940;DHT22;3509;48.510;9.076;2022-07-23T15:10:35;29.40;57.10
6940;DHT22;3509;48.510;9.076;2022-07-23T15:13:01;29.30;57.80
6940;DHT22;3509;48.510;9.076;2022-07-23T15:15:26;29.50;57.20
6940;DHT22;3509;48.510;9.076;2022-07-23T15:17:52;29.60;57.30
6940;DHT22;3509;48.510;9.076;2022-07-23T15:20:17;29.50;56.30
6940;DHT22;3509;48.510;9.076;2022-07-23T15:22:46;29.40;57.40
6940;DHT22;3509;48.510;9.076;2022-07-23T15:25:13;29.40;57.20
6940;DHT22;3509;48.510;9.076;2022-07-23T15:27:39;29.40;55.80
6940;DHT22;3509;48.510;9.076;2022-07-23T15:30:06;29.40;55.50
6940;DHT22;3509;48.510;9.076;2022-07-23T15:32:32;29.30;56.10
6940;DHT22;3509;48.510;9.076;2022-07-23T15:34:57;29.00;56.80
6940;DHT22;3509;48.510;9.076;2022-07-23T15:37:23;28.80;56.90
6940;DHT22;3509;48.510;9.076;2022-07-23T15:39:49;28.90;57.40
6940;DHT22;3509;48.510;9.076;2022-07-23T15:42:15;28.80;58.40
6940;DHT22;3509;48.510;9.076;2022-07-23T15:44:41;28.80;57.90
6940;DHT22;3509;48.510;9.076;2022-07-23T15:47:12;28.80;58.80
6940;DHT22;3509;48.510;9.076;2022-07-23T15:49:38;28.50;56.80
6940;DHT22;3509;48.510;9.076;2022-07-23T15:52:04;28.40;57.20
6940;DHT22;3509;48.510;9.076;2022-07-23T15:54:29;28.20;59.50
6940;DHT22;3509;48.510;9.076;2022-07-23T15:56:55;28.10;62.20
6940;DHT22;3509;48.510;9.076;2022-07-23T15:59:21;28.00;64.10
6940;DHT22;3509;48.510;9.076;2022-07-23T16:01:47;28.00;63.90
6940;DHT22;3509;48.510;9.076;2022-07-23T16:04:12;27.90;62.00
6940;DHT22;3509;48.510;9.076;2022-07-23T16:06:38;27.90;65.60
6940;DHT22;3509;48.510;9.076;2022-07-23T16:09:07;27.90;60.30
6940;DHT22;3509;48.510;9.076;2022-07-23T16:11:33;27.90;60.70
6940;DHT22;3509;48.510;9.076;2022-07-23T16:13:59;28.00;58.30
6940;DHT22;3509;48.510;9.076;2022-07-23T16:16:25;28.00;59.70
6940;DHT22;3509;48.510;9.076;2022-07-23T16:18:52;28.10;63.30
6940;DHT22;3509;48.510;9.076;2022-07-23T16:21:18;28.00;65.80
6940;DHT22;3509;48.510;9.076;2022-07-23T16:23:45;27.90;64.60
6940;DHT22;3509;48.510;9.076;2022-07-23T16:26:11;27.80;66.60
6940;DHT22;3509;48.510;9.076;2022-07-23T16:28:38;27.60;66.90
6940;DHT22;3509;48.510;9.076;2022-07-23T16:31:04;27.50;66.50
6940;DHT22;3509;48.510;9.076;2022-07-23T16:33:29;27.40;68.40
6940;DHT22;3509;48.510;9.076;2022-07-23T16:35:55;27.20;67.80
6940;DHT22;3509;48.510;9.076;2022-07-23T16:38:21;27.20;70.00
6940;DHT22;3509;48.510;9.076;2022-07-23T16:40:48;27.00;71.20
6940;DHT22;3509;48.510;9.076;2022-07-23T16:43:14;26.90;72.60
6940;DHT22;3509;48.510;9.076;2022-07-23T16:45:40;26.90;72.50
6940;DHT22;3509;48.510;9.076;2022-07-23T16:48:06;26.90;72.40
6940;DHT22;3509;48.510;9.076;2022-07-23T16:50:31;27.00;72.20
6940;DHT22;3509;48.510;9.076;2022-07-23T16:52:57;26.90;71.90
6940;DHT22;3509;48.510;9.076;2022-07-23T16:55:22;26.80;71.00